CA-0136 weather

CLOSED Fort Nelson (Forestry) Heliport
British Columbia, Canada

Public forecast

Using degrees Celsius for public forecast. Weather courtesy of forecast.io.

Closest aviation weather report (METAR) to Fort Nelson (Forestry) Heliport

Closest report is Fort Nelson Airport, 4.8 nm (8.8 km) ENE. Retrieved 2019/10/24 00:00 UTC (23 minutes ago):

CYYE 240000Z 17004KT 120V190 20SM OVC120 01/M00 A2997 RMK AC8 SLP175

Closest aviation forecast (TAF) to Fort Nelson (Forestry) Heliport

Closest forecast is Fort Nelson Airport, 4.8 nm (8.8 km) ENE. Retrieved 2019-10-24 01:42 UTC (0 seconds ago):

TAF CYYE 240038Z 2401/2413 17005KT P6SM OVC120 FM240200 VRB03KT P6SM -RA SCT025 OVC060 TEMPO 2402/2406 6SM -RA BR FEW008 BKN020 OVC040 FM240600 VRB03KT P6SM BKN080 FM240900 VRB03KT P6SM FEW060 PROB30 2409/2413 1SM BR RMK NXT FCST BY 240700Z